< < Back
Terminal Aerodrome Forecast


Current Version              Previous Versions:   1  2  3  4  5  6  7  8  9  

Terminal Aerodrome Forecast

064
FTUS44 KOHX 011123
TAFBNA
TAF
KBNA 011123Z 0112/0212 21004KT P6SM SCT250
     FM011500 27007KT P6SM VCTS BKN040CB OVC120
     FM011800 23006KT 6SM -SHRA VCTS OVC040CB
      TEMPO 0120/0124 3SM TSRA BR OVC020CB
     FM020100 20005KT 6SM -SHRA VCTS OVC035CB=

Latest METAR

554
SAUS70 KWBC 012256
MTRBNA
METAR KBNA 012253Z 19005KT 10SM FEW015 BKN100 OVC120 22/21 A2996 RMK AO2
SLP138 T02220211


USA.gov is the U.S. government's official web portal to all federal, state and local government web resources and services.